Time;durP1;ratioP1;P1;durP2;ratioP2;P2;SDS_P1;SDS_P2;PMS_P1;PMS_P2;Temp;Humidity;BMP_temperature;BMP_pressure;BME280_temperature;BME280_humidity;BME280_pressure;Samples;Min_cycle;Max_cycle;Signal;HPM_P1;HPM_P2
2023/04/11 00:01:39;;;;;;;97.60;56.20;;;;;;;6.21;81.11;100356.85;129754;1276;114762;-68
2023/04/11 00:04:41;;;;;;;98.60;55.40;;;;;;;6.19;81.11;100347.16;129334;1283;114813;-66
2023/04/11 00:07:44;;;;;;;88.00;52.60;;;;;;;6.17;81.27;100341.36;129857;1263;114795;-66
2023/04/11 00:10:49;;;;;;;92.70;55.00;;;;;;;6.15;81.27;100335.38;129707;1263;114741;-66
2023/04/11 00:13:56;;;;;;;91.60;53.90;;;;;;;6.13;81.23;100335.27;129788;1283;114753;-66
2023/04/11 00:16:59;;;;;;;98.10;54.80;;;;;;;6.12;81.26;100325.91;129206;1283;115236;-67
2023/04/11 00:20:06;;;;;;;91.60;53.80;;;;;;;6.11;81.35;100326.30;129898;1279;115369;-67
2023/04/11 00:23:09;;;;;;;93.20;53.30;;;;;;;6.10;81.48;100321.55;129714;1261;115266;-65
2023/04/11 00:26:11;;;;;;;100.20;55.70;;;;;;;6.08;81.56;100318.92;129698;1263;114794;-66
2023/04/11 00:29:13;;;;;;;94.40;53.10;;;;;;;6.07;81.47;100313.63;129587;1280;114788;-66
2023/04/11 00:32:16;;;;;;;92.40;52.30;;;;;;;6.09;81.77;100310.39;129543;1264;114808;-66
2023/04/11 00:35:18;;;;;;;91.90;53.90;;;;;;;6.11;81.92;100307.68;129748;1282;115207;-66
2023/04/11 00:38:21;;;;;;;93.80;54.50;;;;;;;6.13;82.03;100307.79;129407;1282;114737;-65
2023/04/11 00:41:23;;;;;;;91.30;53.40;;;;;;;6.15;82.05;100307.38;129765;1264;115091;-68
2023/04/11 00:44:25;;;;;;;99.30;55.70;;;;;;;6.16;81.96;100303.98;129679;1282;114819;-66
2023/04/11 00:47:28;;;;;;;100.20;57.40;;;;;;;6.15;81.98;100298.68;129428;1283;115446;-67
2023/04/11 00:50:30;;;;;;;90.90;56.60;;;;;;;6.14;82.02;100304.19;129538;1282;114828;-66
2023/04/11 00:53:34;;;;;;;97.00;56.30;;;;;;;6.13;81.97;100298.59;129726;1263;114737;-66
2023/04/11 00:56:37;;;;;;;98.20;57.70;;;;;;;6.11;81.83;100288.73;129673;1263;114733;-67
2023/04/11 00:59:39;;;;;;;91.80;54.90;;;;;;;6.08;81.76;100287.20;129625;1282;114747;-66
2023/04/11 01:02:42;;;;;;;101.70;57.10;;;;;;;6.05;81.82;100285.19;129594;1276;114778;-64
2023/04/11 01:05:44;;;;;;;101.30;55.80;;;;;;;6.01;81.65;100287.95;129333;1261;114737;-65
2023/04/11 01:08:47;;;;;;;91.60;54.30;;;;;;;5.98;81.94;100283.40;129387;1275;114877;-65
2023/04/11 01:11:50;;;;;;;92.60;54.90;;;;;;;5.95;82.33;100278.00;129459;1264;114753;-65
2023/04/11 01:14:53;;;;;;;96.10;54.30;;;;;;;5.92;82.25;100275.60;129888;1275;115409;-65
2023/04/11 01:17:56;;;;;;;91.70;54.20;;;;;;;5.90;82.30;100272.83;129678;1260;114759;-65
2023/04/11 01:20:59;;;;;;;100.30;55.90;;;;;;;5.88;82.35;100267.03;129239;1264;245620;-66
2023/04/11 01:24:02;;;;;;;92.70;54.80;;;;;;;5.87;82.53;100261.75;129426;1263;114734;-64
2023/04/11 01:27:04;;;;;;;90.90;55.50;;;;;;;5.86;82.48;100260.02;129765;1264;114881;-65
2023/04/11 01:30:07;;;;;;;98.90;56.60;;;;;;;5.85;82.43;100262.18;129610;1263;114810;-65
2023/04/11 01:33:10;;;;;;;93.20;55.80;;;;;;;5.83;82.56;100257.43;129725;1264;114740;-65
2023/04/11 01:36:12;;;;;;;103.50;57.90;;;;;;;5.82;82.52;100249.88;129735;1277;115230;-65
2023/04/11 01:39:14;;;;;;;101.50;56.90;;;;;;;5.80;82.47;100246.91;129712;1263;114787;-65
2023/04/11 01:42:17;;;;;;;100.20;56.10;;;;;;;5.77;82.42;100240.08;129663;1276;114760;-65
2023/04/11 01:45:20;;;;;;;103.40;56.80;;;;;;;5.75;82.52;100236.95;129454;1263;114894;-65
2023/04/11 01:48:22;;;;;;;96.90;55.60;;;;;;;5.73;82.48;100234.70;129683;1282;114830;-65
2023/04/11 01:51:24;;;;;;;99.20;56.90;;;;;;;5.69;82.81;100224.91;129385;1279;114820;-66
2023/04/11 01:54:26;;;;;;;100.50;56.50;;;;;;;5.66;82.55;100213.48;129408;1267;114686;-66
2023/04/11 01:57:28;;;;;;;107.80;57.60;;;;;;;5.63;82.63;100213.21;129396;1265;114746;-65
2023/04/11 02:00:31;;;;;;;98.50;57.90;;;;;;;5.60;82.58;100207.64;129371;1282;114791;-66
2023/04/11 02:03:33;;;;;;;104.70;57.90;;;;;;;5.57;82.70;100198.34;129483;1263;115022;-65
2023/04/11 02:06:35;;;;;;;102.50;59.30;;;;;;;5.55;82.59;100190.08;129314;1264;114817;-66
2023/04/11 02:09:37;;;;;;;96.30;57.90;;;;;;;5.52;82.66;100189.82;129856;1282;114808;-66
2023/04/11 02:12:39;;;;;;;99.90;56.90;;;;;;;5.50;82.75;100187.56;129611;1264;115223;-67
2023/04/11 02:15:41;;;;;;;102.60;58.50;;;;;;;5.48;82.52;100186.56;129639;1282;115223;-67
2023/04/11 02:18:45;;;;;;;96.60;56.10;;;;;;;5.45;82.46;100181.52;129666;1282;115263;-67
2023/04/11 02:21:47;;;;;;;93.20;54.20;;;;;;;5.42;82.52;100175.05;129798;1263;114780;-64
2023/04/11 02:24:50;;;;;;;99.60;56.00;;;;;;;5.39;82.80;100176.02;129682;1282;114748;-65
2023/04/11 02:27:52;;;;;;;94.60;54.00;;;;;;;5.37;82.85;100167.77;129650;1264;114693;-67
2023/04/11 02:30:54;;;;;;;99.20;56.50;;;;;;;5.35;82.79;100161.63;129667;1282;114733;-65
2023/04/11 02:33:57;;;;;;;106.80;57.60;;;;;;;5.32;82.59;100156.41;129461;1263;115256;-65
2023/04/11 02:36:59;;;;;;;98.90;54.50;;;;;;;5.29;82.81;100148.52;129652;1264;114644;-64
2023/04/11 02:40:01;;;;;;;92.90;54.90;;;;;;;5.27;82.90;100144.52;129715;1276;114727;-66
2023/04/11 02:43:03;;;;;;;98.40;55.80;;;;;;;5.25;82.93;100141.40;129668;1282;114875;-65
2023/04/11 02:46:06;;;;;;;95.40;55.30;;;;;;;5.23;83.20;100143.21;129630;1264;114753;-65
2023/04/11 02:49:08;;;;;;;105.60;57.10;;;;;;;5.21;83.19;100149.48;129611;1263;115484;-65
2023/04/11 02:52:10;;;;;;;100.20;55.60;;;;;;;5.18;83.03;100149.92;129695;1279;114714;-65
2023/04/11 02:55:12;;;;;;;99.70;56.40;;;;;;;5.16;83.13;100146.61;129634;1261;115189;-67
2023/04/11 02:58:16;;;;;;;101.20;57.30;;;;;;;5.13;83.20;100144.57;129668;1282;115490;-66
2023/04/11 03:01:20;;;;;;;103.50;57.10;;;;;;;5.11;83.43;100138.26;129685;1261;114811;-66
2023/04/11 03:04:22;;;;;;;99.00;58.30;;;;;;;5.09;83.21;100134.62;129664;1261;114824;-66
2023/04/11 03:07:25;;;;;;;108.70;59.10;;;;;;;5.06;83.44;100129.02;129590;1263;115359;-67
2023/04/11 03:10:28;;;;;;;101.00;58.90;;;;;;;5.04;83.21;100125.02;129608;1264;115355;-65
2023/04/11 03:13:30;;;;;;;112.60;60.10;;;;;;;5.01;83.16;100122.62;129711;1264;114711;-66
2023/04/11 03:16:32;;;;;;;104.00;59.20;;;;;;;4.99;83.21;100121.45;129659;1263;114752;-66
2023/04/11 03:19:34;;;;;;;101.10;57.30;;;;;;;4.96;83.14;100121.55;129656;1261;115308;-65
2023/04/11 03:22:37;;;;;;;112.20;60.40;;;;;;;4.92;82.97;100117.75;129684;1261;114823;-65
2023/04/11 03:25:40;;;;;;;105.40;58.20;;;;;;;4.90;83.03;100108.27;129548;1283;114844;-66
2023/04/11 03:28:42;;;;;;;108.20;60.50;;;;;;;4.87;83.32;100106.05;129658;1264;114791;-64
2023/04/11 03:31:44;;;;;;;108.90;60.60;;;;;;;4.86;83.37;100102.54;129727;1263;115321;-67
2023/04/11 03:34:46;;;;;;;113.90;64.80;;;;;;;4.84;83.47;100097.63;129551;1264;116522;-64
2023/04/11 03:37:48;;;;;;;103.50;60.70;;;;;;;4.83;83.47;100091.64;129670;1259;114743;-65
2023/04/11 03:40:50;;;;;;;108.20;61.40;;;;;;;4.82;83.35;100085.30;129718;1282;115168;-64
2023/04/11 03:43:52;;;;;;;105.90;57.70;;;;;;;4.81;83.57;100086.56;129506;1261;114816;-65
2023/04/11 03:46:54;;;;;;;106.40;57.00;;;;;;;4.81;83.92;100086.77;129710;1261;115423;-67
2023/04/11 03:49:56;;;;;;;107.20;59.50;;;;;;;4.81;83.78;100077.73;129692;1263;114730;-67
2023/04/11 03:52:58;;;;;;;101.60;59.60;;;;;;;4.81;83.76;100066.75;129683;1263;126853;-67
2023/04/11 03:56:00;;;;;;;100.70;58.50;;;;;;;4.81;83.80;100059.13;129658;1263;114784;-66
2023/04/11 03:59:02;;;;;;;106.60;59.30;;;;;;;4.82;83.79;100057.52;129751;1260;114708;-66
2023/04/11 04:02:04;;;;;;;109.40;59.50;;;;;;;4.83;83.83;100054.50;129443;1267;114729;-67
2023/04/11 04:05:07;;;;;;;105.60;59.70;;;;;;;4.84;84.04;100053.40;129645;1261;115460;-67
2023/04/11 04:08:09;;;;;;;104.10;56.80;;;;;;;4.85;83.82;100053.91;129712;1278;114855;-67
2023/04/11 04:11:11;;;;;;;102.20;58.40;;;;;;;4.88;83.83;100047.99;129693;1264;114666;-68
2023/04/11 04:14:13;;;;;;;99.50;54.10;;;;;;;4.89;84.02;100045.13;129455;1264;128039;-68
2023/04/11 04:17:15;;;;;;;94.50;53.40;;;;;;;4.90;84.07;100043.13;129634;1264;114807;-66
2023/04/11 04:20:17;;;;;;;103.90;56.40;;;;;;;4.92;84.13;100040.59;129720;1264;114793;-67
2023/04/11 04:23:19;;;;;;;97.50;53.40;;;;;;;4.96;84.28;100038.55;129732;1264;114743;-68
2023/04/11 04:26:23;;;;;;;100.10;56.00;;;;;;;4.98;84.24;100032.80;129686;1279;114724;-66
2023/04/11 04:29:32;;;;;;;95.90;52.90;;;;;;;5.01;84.45;100034.66;129665;1263;114841;-66
2023/04/11 04:32:35;;;;;;;97.00;53.60;;;;;;;5.03;84.36;100039.38;129417;1263;127826;-66
2023/04/11 04:35:37;;;;;;;89.80;51.20;;;;;;;5.06;84.27;100039.83;129541;1282;114743;-68
2023/04/11 04:38:40;;;;;;;83.10;49.40;;;;;;;5.08;84.29;100041.89;129752;1276;114736;-67
2023/04/11 04:41:44;;;;;;;101.70;53.80;;;;;;;5.09;84.38;100038.13;129480;1264;114911;-67
2023/04/11 04:44:46;;;;;;;86.20;52.00;;;;;;;5.12;84.57;100038.39;129554;1267;114826;-67
2023/04/11 04:47:49;;;;;;;91.80;52.50;;;;;;;5.16;84.68;100027.98;129700;1279;114730;-68
2023/04/11 04:50:51;;;;;;;97.30;54.40;;;;;;;5.22;84.78;100016.83;129673;1264;114881;-67
2023/04/11 04:53:53;;;;;;;94.10;54.40;;;;;;;5.31;84.94;100007.52;129780;1282;114745;-67
2023/04/11 04:56:56;;;;;;;96.40;54.70;;;;;;;5.43;85.19;100008.02;129656;1277;115256;-65
2023/04/11 05:00:01;;;;;;;94.40;52.30;;;;;;;5.58;85.19;100007.70;129914;1261;114732;-66
2023/04/11 05:03:07;;;;;;;98.80;56.20;;;;;;;5.75;85.20;100003.75;129587;1263;114731;-67
2023/04/11 05:06:16;;;;;;;90.70;52.90;;;;;;;5.87;85.04;100006.52;129806;1260;114734;-67
2023/04/11 05:09:28;;;;;;;96.70;54.80;;;;;;;5.99;85.08;100008.61;129714;1267;127931;-66
2023/04/11 05:12:32;;;;;;;97.30;55.90;;;;;;;6.08;84.72;100013.24;129491;1284;115195;-65
2023/04/11 05:15:34;;;;;;;99.90;55.80;;;;;;;6.14;84.42;100008.97;129624;1284;115165;-67
2023/04/11 05:18:36;;;;;;;96.20;55.50;;;;;;;6.18;84.27;100007.08;129534;1267;114825;-67
2023/04/11 05:21:38;;;;;;;94.20;55.40;;;;;;;6.21;84.26;100000.91;129398;1267;114869;-66
2023/04/11 05:24:41;;;;;;;98.70;53.40;;;;;;;6.25;84.19;99996.01;129436;1267;114913;-66
2023/04/11 05:27:43;;;;;;;99.90;56.10;;;;;;;6.27;84.03;99984.76;129544;1282;114900;-67
2023/04/11 05:30:45;;;;;;;93.10;53.60;;;;;;;6.30;83.96;99975.44;129580;1267;114814;-67
2023/04/11 05:33:48;;;;;;;92.80;51.80;;;;;;;6.30;83.82;99965.67;129578;1268;116490;-65
2023/04/11 05:36:49;;;;;;;91.30;52.10;;;;;;;6.30;83.64;99964.80;129338;1277;115150;-66
2023/04/11 05:39:53;;;;;;;91.50;53.60;;;;;;;6.27;83.56;99961.70;129827;1263;114753;-65
2023/04/11 05:42:55;;;;;;;89.20;52.40;;;;;;;6.27;83.52;99954.42;129717;1263;114845;-66
2023/04/11 05:45:57;;;;;;;88.60;53.60;;;;;;;6.28;83.52;99941.45;129661;1282;114856;-65
2023/04/11 05:48:59;;;;;;;89.30;53.50;;;;;;;6.28;83.44;99937.38;129718;1263;129653;-67
2023/04/11 05:52:02;;;;;;;84.30;50.80;;;;;;;6.28;83.41;99919.98;129718;1263;114737;-66
2023/04/11 05:55:06;;;;;;;89.40;52.40;;;;;;;6.31;83.63;99912.59;129731;1264;115335;-66
2023/04/11 05:58:09;;;;;;;86.90;51.10;;;;;;;6.36;83.74;99906.20;129524;1260;114743;-66
2023/04/11 06:01:17;;;;;;;86.60;54.10;;;;;;;6.41;83.69;99898.92;129457;1260;114871;-66
2023/04/11 06:04:19;;;;;;;84.00;50.30;;;;;;;6.46;83.66;99889.67;129669;1263;114723;-69
2023/04/11 06:07:21;;;;;;;92.90;51.60;;;;;;;6.52;83.63;99883.94;129633;1264;114834;-67
2023/04/11 06:10:23;;;;;;;89.90;50.80;;;;;;;6.58;83.54;99875.55;129802;1264;114742;-66
2023/04/11 06:13:25;;;;;;;87.00;54.10;;;;;;;6.64;83.50;99866.77;129439;1261;115654;-67
2023/04/11 06:16:28;;;;;;;89.70;51.40;;;;;;;6.72;83.69;99863.45;129642;1259;115151;-68
2023/04/11 06:19:30;;;;;;;88.60;53.60;;;;;;;6.79;83.57;99855.17;129697;1263;116409;-65
2023/04/11 06:22:32;;;;;;;93.10;56.20;;;;;;;6.86;83.58;99852.96;129272;1261;115139;-66
2023/04/11 06:25:33;;;;;;;94.60;52.70;;;;;;;6.93;83.45;99849.65;129701;1259;114727;-66
2023/04/11 06:28:35;;;;;;;88.60;51.30;;;;;;;7.02;83.65;99847.13;129705;1262;115661;-67
2023/04/11 06:31:38;;;;;;;91.10;53.10;;;;;;;7.10;83.29;99849.11;129697;1261;129162;-67
2023/04/11 06:34:41;;;;;;;94.00;52.40;;;;;;;7.18;83.23;99844.85;129620;1264;114736;-66
2023/04/11 06:37:44;;;;;;;92.20;50.70;;;;;;;7.26;83.22;99850.20;129676;1263;114835;-66
2023/04/11 06:40:47;;;;;;;84.50;48.60;;;;;;;7.37;83.27;99860.57;129734;1263;114756;-65
2023/04/11 06:43:49;;;;;;;90.60;50.20;;;;;;;7.45;83.30;99859.84;129713;1282;114708;-66
2023/04/11 06:46:51;;;;;;;84.30;48.80;;;;;;;7.51;83.04;99849.30;129747;1282;114651;-64
2023/04/11 06:49:54;;;;;;;83.50;49.00;;;;;;;7.57;82.92;99848.14;129762;1263;128969;-66
2023/04/11 06:52:57;;;;;;;90.30;53.30;;;;;;;7.63;82.61;99845.90;129650;1264;114826;-66
2023/04/11 06:56:00;;;;;;;82.50;49.90;;;;;;;7.66;82.26;99844.54;129516;1261;115127;-66
2023/04/11 06:59:02;;;;;;;94.70;53.30;;;;;;;7.71;82.35;99838.09;129660;1282;114794;-66
2023/04/11 07:02:04;;;;;;;89.20;53.40;;;;;;;7.74;82.09;99831.91;129726;1282;114808;-66
2023/04/11 07:05:10;;;;;;;89.00;52.00;;;;;;;7.79;82.14;99825.85;129717;1263;115350;-66
2023/04/11 07:08:12;;;;;;;88.80;53.40;;;;;;;7.82;82.24;99823.02;129710;1261;127966;-65
2023/04/11 07:11:14;;;;;;;87.70;53.60;;;;;;;7.88;81.96;99823.64;129652;1261;114767;-66
2023/04/11 07:14:17;;;;;;;90.00;51.30;;;;;;;7.93;81.87;99825.02;129817;1263;115397;-66
2023/04/11 07:17:19;;;;;;;85.00;50.70;;;;;;;8.00;81.83;99830.75;129685;1261;114730;-66
2023/04/11 07:20:21;;;;;;;81.20;50.00;;;;;;;8.08;81.84;99831.42;129754;1264;114725;-65
2023/04/11 07:23:23;;;;;;;92.20;51.50;;;;;;;8.17;82.11;99827.60;129781;1278;114711;-65
2023/04/11 07:26:26;;;;;;;89.80;51.40;;;;;;;8.28;81.86;99818.41;129725;1263;114710;-66
2023/04/11 07:29:28;;;;;;;93.70;52.60;;;;;;;8.34;81.86;99814.70;129670;1279;115337;-66
2023/04/11 07:32:30;;;;;;;89.70;51.60;;;;;;;8.40;81.74;99809.81;129674;1261;114725;-66
2023/04/11 07:35:33;;;;;;;89.20;51.00;;;;;;;8.48;81.51;99810.71;129760;1283;114768;-67
2023/04/11 07:38:36;;;;;;;87.50;50.00;;;;;;;8.55;81.42;99810.20;129646;1261;114758;-66
2023/04/11 07:41:38;;;;;;;90.00;51.60;;;;;;;8.61;80.96;99802.26;129777;1263;114708;-66
2023/04/11 07:44:40;;;;;;;92.60;51.40;;;;;;;8.66;81.27;99805.02;129642;1283;114715;-67
2023/04/11 07:47:42;;;;;;;86.60;53.20;;;;;;;8.73;80.99;99798.64;129671;1263;114750;-67
2023/04/11 07:50:44;;;;;;;84.80;49.50;;;;;;;8.80;80.77;99790.96;129624;1264;129415;-67
2023/04/11 07:53:46;;;;;;;89.10;50.80;;;;;;;8.89;80.97;99789.80;129747;1263;115064;-66
2023/04/11 07:56:48;;;;;;;86.60;50.70;;;;;;;8.97;80.71;99784.98;129660;1282;115095;-67
2023/04/11 07:59:50;;;;;;;82.90;48.90;;;;;;;9.08;80.61;99777.99;129699;1264;114730;-67
2023/04/11 08:02:52;;;;;;;77.80;48.10;;;;;;;9.19;80.58;99773.68;129674;1280;115105;-66
2023/04/11 08:05:54;;;;;;;85.00;48.40;;;;;;;9.28;80.27;99764.45;129689;1283;115207;-66
2023/04/11 08:08:59;;;;;;;80.90;46.20;;;;;;;9.38;80.10;99762.19;129757;1283;114721;-68
2023/04/11 08:12:02;;;;;;;87.70;48.90;;;;;;;9.49;80.04;99751.79;129709;1282;128787;-67
2023/04/11 08:15:05;;;;;;;80.80;46.80;;;;;;;9.58;79.89;99746.31;129680;1263;114819;-67
2023/04/11 08:18:07;;;;;;;83.70;45.60;;;;;;;9.69;79.65;99740.68;129709;1261;115102;-66
2023/04/11 08:21:10;;;;;;;74.90;44.30;;;;;;;9.83;79.80;99742.45;129682;1263;114816;-67
2023/04/11 08:24:12;;;;;;;77.40;45.20;;;;;;;9.97;79.40;99742.55;129735;1264;114781;-66
2023/04/11 08:27:14;;;;;;;76.70;45.70;;;;;;;10.10;79.53;99737.38;129691;1263;114731;-66
2023/04/11 08:30:16;;;;;;;75.60;44.80;;;;;;;10.22;79.07;99726.17;129629;1261;114689;-65
2023/04/11 08:33:21;;;;;;;74.20;43.30;;;;;;;10.36;78.84;99725.58;129766;1261;114740;-67
2023/04/11 08:36:23;;;;;;;;;;;;;;;10.46;78.35;99723.07;129739;1264;114740;-67
2023/04/11 08:39:25;;;;;;;76.80;43.60;;;;;;;10.57;78.33;99721.48;129744;1264;114724;-66
2023/04/11 08:42:30;;;;;;;71.80;42.50;;;;;;;10.74;78.42;99712.31;129703;1264;114785;-65
2023/04/11 08:45:32;;;;;;;70.00;42.00;;;;;;;10.91;78.33;99705.75;129647;1263;114733;-66
2023/04/11 08:48:34;;;;;;;66.60;40.20;;;;;;;11.07;77.88;99707.13;129636;1263;116412;-66
2023/04/11 08:51:37;;;;;;;63.90;38.20;;;;;;;11.25;78.03;99704.59;129755;1264;114696;-66
2023/04/11 08:54:39;;;;;;;68.40;40.40;;;;;;;11.42;77.16;99684.90;129738;1264;114753;-67
2023/04/11 08:57:41;;;;;;;66.00;38.40;;;;;;;11.52;76.61;99677.14;129657;1263;115240;-66
2023/04/11 09:00:43;;;;;;;62.00;37.50;;;;;;;11.66;76.52;99680.36;129642;1261;114717;-66
2023/04/11 09:03:52;;;;;;;57.70;36.30;;;;;;;11.80;76.42;99686.27;129758;1259;114800;-67
2023/04/11 09:06:57;;;;;;;58.70;34.90;;;;;;;11.97;75.33;99685.54;129656;1259;114753;-67
2023/04/11 09:10:20;;;;;;;48.70;32.20;;;;;;;12.11;75.06;99681.06;129634;1264;114723;-65
2023/04/11 09:13:26;;;;;;;56.60;34.20;;;;;;;12.26;74.74;99677.61;129471;1261;127946;-67
2023/04/11 09:16:28;;;;;;;56.90;34.10;;;;;;;12.39;74.63;99669.90;129620;1260;114725;-67
2023/04/11 09:19:33;;;;;;;53.90;31.10;;;;;;;12.55;73.71;99663.50;129587;1261;115159;-66
2023/04/11 09:22:35;;;;;;;50.40;31.60;;;;;;;12.75;74.44;99661.61;129426;1267;114855;-68
2023/04/11 09:25:44;;;;;;;54.60;31.60;;;;;;;12.98;73.70;99657.84;129751;1263;115153;-66
2023/04/11 09:28:52;;;;;;;46.50;29.10;;;;;;;13.17;72.73;99658.68;129587;1272;126651;-65
2023/04/11 09:31:54;;;;;;;51.70;29.70;;;;;;;13.30;72.13;99650.74;129565;1262;115384;-66
2023/04/11 09:35:17;;;;;;;47.90;29.90;;;;;;;13.37;71.89;99640.08;129614;1263;114865;-66
2023/04/11 09:38:30;;;;;;;49.10;27.90;;;;;;;13.51;71.95;99634.60;129659;1264;114766;-67
2023/04/11 09:41:37;;;;;;;41.50;27.00;;;;;;;13.65;71.76;99624.22;129644;1283;114827;-66
2023/04/11 09:44:39;;;;;;;40.80;26.70;;;;;;;13.80;71.67;99621.55;129622;1264;128637;-66
2023/04/11 09:47:41;;;;;;;43.00;28.00;;;;;;;13.95;71.18;99609.44;129612;1264;114775;-67
2023/04/11 09:50:43;;;;;;;42.60;27.40;;;;;;;14.09;70.63;99604.30;129812;1260;115104;-66
2023/04/11 09:53:45;;;;;;;42.40;25.40;;;;;;;14.22;70.16;99604.09;129813;1264;114795;-66
2023/04/11 09:56:48;;;;;;;38.40;25.10;;;;;;;14.31;69.71;99600.10;129658;1280;114791;-65
2023/04/11 09:59:51;;;;;;;38.90;25.10;;;;;;;14.45;69.87;99593.64;129737;1264;114727;-66
2023/04/11 10:02:53;;;;;;;35.90;23.90;;;;;;;14.68;70.24;99600.88;129718;1264;114753;-66
2023/04/11 10:05:56;;;;;;;35.90;23.90;;;;;;;14.94;70.19;99602.33;129350;1263;127734;-65
2023/04/11 10:09:07;;;;;;;33.90;22.80;;;;;;;15.15;69.33;99606.60;129740;1261;114691;-66
2023/04/11 10:12:08;;;;;;;28.20;21.30;;;;;;;15.30;68.77;99613.14;129587;1260;114801;-65
2023/04/11 10:15:11;;;;;;;33.90;21.40;;;;;;;15.42;68.37;99608.20;129555;1262;114785;-65
2023/04/11 10:18:13;;;;;;;29.90;21.50;;;;;;;15.54;68.03;99616.77;129787;1263;114756;-64
2023/04/11 10:21:27;;;;;;;31.70;21.40;;;;;;;15.67;67.52;99618.44;129737;1260;114798;-65
2023/04/11 10:24:29;;;;;;;29.70;21.10;;;;;;;15.84;67.42;99616.10;129685;1272;129012;-65
2023/04/11 10:27:59;;;;;;;27.50;19.90;;;;;;;16.09;66.69;99628.68;129591;1283;114820;-66
2023/04/11 10:31:06;;;;;;;30.20;20.50;;;;;;;16.30;66.55;99628.21;129371;1263;114806;-68
2023/04/11 10:34:15;;;;;;;31.40;21.60;;;;;;;16.47;66.46;99627.87;129588;1282;115013;-65
2023/04/11 10:37:39;;;;;;;33.30;21.10;;;;;;;16.66;66.25;99630.09;129480;1263;114720;-65
2023/04/11 10:41:19;;;;;;;28.70;19.60;;;;;;;16.85;65.78;99630.98;129733;1272;127891;-65
2023/04/11 10:44:23;;;;;;;25.90;17.90;;;;;;;17.00;65.46;99630.41;129701;1260;115235;-65
2023/04/11 10:47:27;;;;;;;26.50;17.70;;;;;;;17.11;64.98;99627.97;129439;1282;114746;-64
2023/04/11 10:50:29;;;;;;;23.30;17.40;;;;;;;17.23;64.56;99624.97;129839;1262;114795;-65
2023/04/11 10:53:35;;;;;;;23.40;18.10;;;;;;;17.31;63.99;99626.11;129712;1263;114812;-66
2023/04/11 10:56:50;;;;;;;23.30;17.40;;;;;;;17.39;63.79;99623.23;129703;1282;129023;-66
2023/04/11 10:59:52;;;;;;;25.30;17.50;;;;;;;17.42;63.46;99621.07;129732;1263;114758;-67
2023/04/11 11:02:54;;;;;;;23.20;18.40;;;;;;;17.48;63.43;99619.73;129809;1263;114765;-67
2023/04/11 11:05:58;;;;;;;25.10;16.10;;;;;;;17.52;63.27;99627.07;129809;1263;115078;-66
2023/04/11 11:09:20;;;;;;;22.50;14.90;;;;;;;17.53;62.56;99630.78;129684;1280;114737;-67
2023/04/11 11:12:22;;;;;;;20.20;13.70;;;;;;;17.44;61.69;99634.45;129798;1263;114775;-64
2023/04/11 11:15:24;;;;;;;17.00;13.20;;;;;;;17.37;61.30;99632.26;129777;1263;115427;-66
2023/04/11 11:18:26;;;;;;;17.00;13.20;;;;;;;17.24;61.21;99635.31;129487;1282;114744;-66
2023/04/11 11:21:33;;;;;;;19.40;13.00;;;;;;;17.19;60.90;99639.25;129254;1262;115191;-66
2023/04/11 11:24:34;;;;;;;18.00;13.80;;;;;;;17.05;60.33;99640.81;129751;1263;114771;-66
2023/04/11 11:27:36;;;;;;;21.70;15.20;;;;;;;16.90;60.28;99659.18;129743;1264;114750;-66
2023/04/11 11:30:49;;;;;;;19.20;15.00;;;;;;;16.68;60.26;99667.94;129798;1282;115477;-66
2023/04/11 11:33:51;;;;;;;23.90;15.80;;;;;;;16.37;60.57;99675.52;129690;1279;114746;-67
2023/04/11 11:36:55;;;;;;;25.40;17.20;;;;;;;16.07;60.65;99680.73;129661;1276;115134;-67
2023/04/11 11:39:57;;;;;;;25.40;18.10;;;;;;;15.77;61.60;99681.86;129679;1279;114735;-66
2023/04/11 11:42:59;;;;;;;20.70;15.80;;;;;;;15.52;62.05;99689.66;129754;1264;115102;-65
2023/04/11 11:46:09;;;;;;;15.90;10.90;;;;;;;15.24;62.11;99696.88;129767;1282;115114;-67
2023/04/11 11:49:11;;;;;;;12.60;9.60;;;;;;;14.92;62.33;99701.67;129646;1263;114919;-67
2023/04/11 11:52:33;;;;;;;11.80;7.20;;;;;;;14.68;62.57;99705.68;129650;1282;115208;-66
2023/04/11 11:55:35;;;;;;;12.20;6.40;;;;;;;14.44;62.86;99709.45;129750;1272;129097;-67
2023/04/11 11:58:43;;;;;;;12.70;6.50;;;;;;;14.22;63.07;99708.39;129688;1282;114669;-66
2023/04/11 12:01:46;;;;;;;8.60;5.90;;;;;;;13.97;63.34;99711.48;129777;1263;114738;-68
2023/04/11 12:04:49;;;;;;;9.20;5.90;;;;;;;13.74;63.38;99712.58;129732;1282;114727;-67
2023/04/11 12:07:57;;;;;;;7.80;5.40;;;;;;;13.55;63.98;99709.10;129733;1267;114717;-66
2023/04/11 12:11:01;;;;;;;8.40;5.60;;;;;;;13.37;64.21;99708.95;129779;1271;128633;-66
2023/04/11 12:14:03;;;;;;;6.10;4.20;;;;;;;13.19;64.44;99710.31;129764;1263;115157;-66
2023/04/11 12:17:07;;;;;;;10.60;6.00;;;;;;;13.00;64.51;99709.19;129882;1263;114726;-65
2023/04/11 12:20:10;;;;;;;8.00;6.10;;;;;;;12.80;64.89;99712.64;129752;1263;114748;-67
2023/04/11 12:23:12;;;;;;;9.90;5.10;;;;;;;12.62;65.24;99722.69;129845;1263;115232;-66
2023/04/11 12:26:14;;;;;;;8.10;5.30;;;;;;;12.48;65.70;99727.89;129794;1264;114708;-66
2023/04/11 12:29:16;;;;;;;8.20;5.30;;;;;;;12.32;65.89;99728.08;129411;1282;129776;-66
2023/04/11 12:32:18;;;;;;;12.40;8.90;;;;;;;12.16;66.23;99733.05;129773;1263;115185;-67
2023/04/11 12:35:20;;;;;;;10.70;8.00;;;;;;;11.94;65.74;99724.92;129724;1282;114699;-65
2023/04/11 12:38:23;;;;;;;9.40;6.10;;;;;;;11.72;66.16;99729.38;129726;1263;114731;-64
2023/04/11 12:41:24;;;;;;;11.00;7.20;;;;;;;11.55;67.14;99720.98;129233;1263;116270;-64
2023/04/11 12:44:26;;;;;;;10.70;8.30;;;;;;;11.38;67.00;99711.97;129364;1263;114709;-64
2023/04/11 12:47:28;;;;;;;24.30;21.20;;;;;;;11.23;67.43;99712.89;129313;1280;114838;-65
2023/04/11 12:50:30;;;;;;;25.60;22.00;;;;;;;11.07;67.79;99712.80;129344;1274;114852;-65
2023/04/11 12:53:32;;;;;;;12.20;9.20;;;;;;;10.95;68.27;99709.64;129843;1261;115117;-64
2023/04/11 12:56:34;;;;;;;13.40;10.00;;;;;;;10.84;68.87;99710.61;129289;1263;115224;-64
2023/04/11 12:59:36;;;;;;;11.60;8.30;;;;;;;10.77;69.05;99711.93;129797;1263;114749;-65
2023/04/11 13:02:38;;;;;;;16.10;10.10;;;;;;;10.71;69.43;99708.56;129807;1263;114763;-65
2023/04/11 13:05:40;;;;;;;13.20;8.20;;;;;;;10.63;69.58;99708.45;129765;1261;114820;-67
2023/04/11 13:08:42;;;;;;;14.70;9.00;;;;;;;10.56;70.00;99705.66;129669;1263;114841;-66
2023/04/11 13:11:44;;;;;;;12.10;8.40;;;;;;;10.51;69.56;99700.25;129737;1271;114743;-65
2023/04/11 13:14:46;;;;;;;11.90;7.70;;;;;;;10.46;70.04;99698.41;129780;1275;129183;-66
2023/04/11 13:17:49;;;;;;;14.90;8.00;;;;;;;10.45;70.76;99689.16;129700;1271;114794;-66
2023/04/11 13:20:50;;;;;;;15.00;9.20;;;;;;;10.44;70.17;99689.57;129492;1282;306947;-65
2023/04/11 13:23:52;;;;;;;14.30;9.00;;;;;;;10.42;70.64;99680.08;129597;1264;115102;-66
2023/04/11 13:26:54;;;;;;;10.40;7.70;;;;;;;10.45;70.85;99677.41;129690;1274;116326;-66
2023/04/11 13:29:56;;;;;;;7.80;6.00;;;;;;;10.47;70.69;99683.86;129799;1271;114778;-66
2023/04/11 13:32:58;;;;;;;9.10;6.70;;;;;;;10.53;71.16;99683.18;129472;1266;114897;-66
2023/04/11 13:36:01;;;;;;;9.80;7.50;;;;;;;10.59;71.41;99692.64;129658;1263;114854;-66
2023/04/11 13:39:04;;;;;;;7.60;6.10;;;;;;;10.67;71.66;99705.17;129678;1263;114773;-66
2023/04/11 13:42:06;;;;;;;9.30;6.20;;;;;;;10.75;71.70;99710.45;129700;1263;114779;-67
2023/04/11 13:45:08;;;;;;;10.20;6.90;;;;;;;10.86;71.78;99720.90;129890;1267;115268;-66
2023/04/11 13:48:10;;;;;;;7.90;5.80;;;;;;;11.00;71.71;99728.27;129698;1264;114709;-66